Terminal Aerodrome Forecast
Issued by NWS Sterling, VA

Current Version | Previous Version | Text Only | Print | Product List | Glossary Off
Versions: 1 2 3 4 5 6 7 8 9 10 11 12 13

000
FTUS41 KLWX 300245 AAB
TAFMRB
TAF AMD
KMRB 300245Z 3003/3024 16008KT P6SM BKN080 WS020/22040KT
      TEMPO 3004/3006 -RA BKN040
     FM300700 21008KT P6SM OVC035 WS020/22040KT
     FM301200 22006KT P6SM BKN040
     FM301500 28010G18KT P6SM BKN045
     FM301700 28014G22KT P6SM SCT040=

USA.gov is the U.S. government's official web portal to all federal, state and local government web resources and services.